sensor_id;sensor_type;location;lat;lon;timestamp;noise_LAeq;noise_LA_min;noise_LA_max;noise_LA01;noise_LA95
81493;Laerm;70900;51.798;10.954;2023-12-04T00:02:21;35.41;28.50;47.42;;
81493;Laerm;70900;51.798;10.954;2023-12-04T00:04:47;37.64;31.07;48.42;;
81493;Laerm;70900;51.798;10.954;2023-12-04T00:07:12;36.55;30.06;48.19;;
81493;Laerm;70900;51.798;10.954;2023-12-04T00:09:37;34.25;27.02;43.88;;
81493;Laerm;70900;51.798;10.954;2023-12-04T00:12:03;32.22;27.12;39.59;;
81493;Laerm;70900;51.798;10.954;2023-12-04T00:14:28;30.42;26.05;37.67;;
81493;Laerm;70900;51.798;10.954;2023-12-04T00:16:54;29.07;25.07;40.33;;
81493;Laerm;70900;51.798;10.954;2023-12-04T00:19:19;29.95;24.56;40.81;;
81493;Laerm;70900;51.798;10.954;2023-12-04T00:21:44;26.35;23.96;34.48;;
81493;Laerm;70900;51.798;10.954;2023-12-04T00:24:09;27.16;24.00;35.76;;
81493;Laerm;70900;51.798;10.954;2023-12-04T00:26:35;25.80;23.47;31.48;;
81493;Laerm;70900;51.798;10.954;2023-12-04T00:29:00;26.26;23.35;34.92;;
81493;Laerm;70900;51.798;10.954;2023-12-04T00:31:26;27.72;23.67;38.77;;
81493;Laerm;70900;51.798;10.954;2023-12-04T00:33:51;31.65;25.23;51.82;;
81493;Laerm;70900;51.798;10.954;2023-12-04T00:36:16;29.44;25.04;43.36;;
81493;Laerm;70900;51.798;10.954;2023-12-04T00:38:42;30.30;25.20;39.45;;
81493;Laerm;70900;51.798;10.954;2023-12-04T00:41:07;30.43;26.16;38.55;;
81493;Laerm;70900;51.798;10.954;2023-12-04T00:43:32;32.57;26.40;41.68;;
81493;Laerm;70900;51.798;10.954;2023-12-04T00:45:58;31.92;27.50;41.27;;
81493;Laerm;70900;51.798;10.954;2023-12-04T00:48:23;54.87;26.92;74.92;;
81493;Laerm;70900;51.798;10.954;2023-12-04T00:50:48;33.41;28.48;46.58;;
81493;Laerm;70900;51.798;10.954;2023-12-04T00:53:14;31.40;24.70;39.89;;
81493;Laerm;70900;51.798;10.954;2023-12-04T00:55:39;30.75;25.35;38.98;;
81493;Laerm;70900;51.798;10.954;2023-12-04T00:58:04;28.26;24.54;35.86;;
81493;Laerm;70900;51.798;10.954;2023-12-04T01:00:30;27.05;24.62;33.09;;
81493;Laerm;70900;51.798;10.954;2023-12-04T01:02:55;27.10;23.83;36.08;;
81493;Laerm;70900;51.798;10.954;2023-12-04T01:05:20;29.25;24.81;46.34;;
81493;Laerm;70900;51.798;10.954;2023-12-04T01:07:46;26.43;24.41;33.10;;
81493;Laerm;70900;51.798;10.954;2023-12-04T01:10:11;26.32;23.62;31.35;;
81493;Laerm;70900;51.798;10.954;2023-12-04T01:12:36;28.46;25.16;42.19;;
81493;Laerm;70900;51.798;10.954;2023-12-04T01:15:02;26.13;23.84;30.95;;
81493;Laerm;70900;51.798;10.954;2023-12-04T01:17:28;25.80;23.65;30.40;;
81493;Laerm;70900;51.798;10.954;2023-12-04T01:19:53;25.20;23.51;27.05;;
81493;Laerm;70900;51.798;10.954;2023-12-04T01:22:19;26.26;22.67;36.70;;
81493;Laerm;70900;51.798;10.954;2023-12-04T01:24:44;25.83;23.25;38.97;;
81493;Laerm;70900;51.798;10.954;2023-12-04T01:27:10;25.25;22.50;38.66;;
81493;Laerm;70900;51.798;10.954;2023-12-04T01:29:36;23.53;22.15;32.04;;
81493;Laerm;70900;51.798;10.954;2023-12-04T01:32:01;24.35;22.52;35.49;;
81493;Laerm;70900;51.798;10.954;2023-12-04T01:34:27;38.96;22.43;62.19;;
81493;Laerm;70900;51.798;10.954;2023-12-04T01:36:52;27.83;22.97;41.37;;
81493;Laerm;70900;51.798;10.954;2023-12-04T01:39:17;23.83;22.67;27.25;;
81493;Laerm;70900;51.798;10.954;2023-12-04T01:41:43;23.56;22.15;25.80;;
81493;Laerm;70900;51.798;10.954;2023-12-04T01:44:08;27.56;22.92;44.73;;
81493;Laerm;70900;51.798;10.954;2023-12-04T01:46:33;25.67;23.19;32.06;;
81493;Laerm;70900;51.798;10.954;2023-12-04T01:48:59;24.67;22.97;29.04;;
81493;Laerm;70900;51.798;10.954;2023-12-04T01:51:25;26.22;23.21;46.98;;
81493;Laerm;70900;51.798;10.954;2023-12-04T01:53:51;24.80;23.18;33.91;;
81493;Laerm;70900;51.798;10.954;2023-12-04T01:56:17;25.53;22.94;33.83;;
81493;Laerm;70900;51.798;10.954;2023-12-04T01:58:44;25.31;22.76;38.05;;
81493;Laerm;70900;51.798;10.954;2023-12-04T02:01:10;36.94;23.38;54.26;;
81493;Laerm;70900;51.798;10.954;2023-12-04T02:03:35;25.63;23.17;38.63;;
81493;Laerm;70900;51.798;10.954;2023-12-04T02:06:01;26.24;23.79;41.35;;
81493;Laerm;70900;51.798;10.954;2023-12-04T02:08:28;25.68;23.85;32.66;;
81493;Laerm;70900;51.798;10.954;2023-12-04T02:10:53;27.77;24.31;45.86;;
81493;Laerm;70900;51.798;10.954;2023-12-04T02:13:18;27.49;24.34;36.53;;
81493;Laerm;70900;51.798;10.954;2023-12-04T02:15:44;29.88;24.55;42.51;;
81493;Laerm;70900;51.798;10.954;2023-12-04T02:18:12;34.84;24.77;61.62;;
81493;Laerm;70900;51.798;10.954;2023-12-04T02:20:37;31.54;25.08;43.88;;
81493;Laerm;70900;51.798;10.954;2023-12-04T02:23:03;29.81;24.62;50.56;;
81493;Laerm;70900;51.798;10.954;2023-12-04T02:25:29;28.21;24.83;40.59;;
81493;Laerm;70900;51.798;10.954;2023-12-04T02:27:55;26.86;24.29;42.99;;
81493;Laerm;70900;51.798;10.954;2023-12-04T02:30:22;28.32;25.05;46.60;;
81493;Laerm;70900;51.798;10.954;2023-12-04T02:32:48;28.61;25.32;40.99;;
81493;Laerm;70900;51.798;10.954;2023-12-04T02:35:14;26.62;24.45;36.10;;
81493;Laerm;70900;51.798;10.954;2023-12-04T02:37:40;28.17;24.06;42.18;;
81493;Laerm;70900;51.798;10.954;2023-12-04T02:40:06;28.51;24.66;41.19;;
81493;Laerm;70900;51.798;10.954;2023-12-04T02:42:32;27.15;24.57;37.13;;
81493;Laerm;70900;51.798;10.954;2023-12-04T02:44:57;27.08;24.48;33.62;;
81493;Laerm;70900;51.798;10.954;2023-12-04T02:47:22;31.07;25.14;40.17;;
81493;Laerm;70900;51.798;10.954;2023-12-04T02:49:48;29.58;26.32;35.39;;
81493;Laerm;70900;51.798;10.954;2023-12-04T02:52:13;30.11;26.36;37.36;;
81493;Laerm;70900;51.798;10.954;2023-12-04T02:54:39;29.78;26.72;37.33;;
81493;Laerm;70900;51.798;10.954;2023-12-04T02:57:04;30.56;26.91;41.94;;
81493;Laerm;70900;51.798;10.954;2023-12-04T02:59:29;29.17;25.75;37.89;;
81493;Laerm;70900;51.798;10.954;2023-12-04T03:01:55;29.76;26.47;37.14;;
81493;Laerm;70900;51.798;10.954;2023-12-04T03:04:20;31.22;26.76;42.61;;
81493;Laerm;70900;51.798;10.954;2023-12-04T03:06:45;50.66;27.45;68.91;;
81493;Laerm;70900;51.798;10.954;2023-12-04T03:09:11;32.52;28.14;50.58;;
81493;Laerm;70900;51.798;10.954;2023-12-04T03:11:39;35.30;27.81;52.29;;
81493;Laerm;70900;51.798;10.954;2023-12-04T03:14:05;33.09;28.92;40.55;;
81493;Laerm;70900;51.798;10.954;2023-12-04T03:16:31;32.36;26.66;42.88;;
81493;Laerm;70900;51.798;10.954;2023-12-04T03:18:56;33.62;26.80;49.91;;
81493;Laerm;70900;51.798;10.954;2023-12-04T03:21:22;33.34;27.89;55.81;;
81493;Laerm;70900;51.798;10.954;2023-12-04T03:23:48;49.56;27.51;66.34;;
81493;Laerm;70900;51.798;10.954;2023-12-04T03:26:13;31.29;26.92;39.86;;
81493;Laerm;70900;51.798;10.954;2023-12-04T03:28:38;32.76;27.04;51.95;;
81493;Laerm;70900;51.798;10.954;2023-12-04T03:31:05;30.36;26.43;40.13;;
81493;Laerm;70900;51.798;10.954;2023-12-04T03:33:30;31.64;28.26;37.57;;
81493;Laerm;70900;51.798;10.954;2023-12-04T03:35:56;31.14;27.37;42.61;;
81493;Laerm;70900;51.798;10.954;2023-12-04T03:38:21;31.51;27.92;47.40;;
81493;Laerm;70900;51.798;10.954;2023-12-04T03:40:46;32.43;27.63;44.81;;
81493;Laerm;70900;51.798;10.954;2023-12-04T03:43:12;32.60;28.44;47.14;;
81493;Laerm;70900;51.798;10.954;2023-12-04T03:45:37;32.46;27.73;39.73;;
81493;Laerm;70900;51.798;10.954;2023-12-04T03:48:02;31.52;27.33;44.42;;
81493;Laerm;70900;51.798;10.954;2023-12-04T03:50:28;36.53;28.81;49.47;;
81493;Laerm;70900;51.798;10.954;2023-12-04T03:52:53;30.84;27.47;43.42;;
81493;Laerm;70900;51.798;10.954;2023-12-04T03:55:18;32.77;28.20;43.68;;
81493;Laerm;70900;51.798;10.954;2023-12-04T03:57:45;32.37;27.90;46.96;;
81493;Laerm;70900;51.798;10.954;2023-12-04T04:00:10;34.27;28.32;56.71;;
81493;Laerm;70900;51.798;10.954;2023-12-04T04:02:36;34.32;30.14;44.47;;
81493;Laerm;70900;51.798;10.954;2023-12-04T04:05:01;33.16;28.72;44.75;;
81493;Laerm;70900;51.798;10.954;2023-12-04T04:07:27;35.17;28.99;58.10;;
81493;Laerm;70900;51.798;10.954;2023-12-04T04:09:52;36.42;31.00;53.13;;
81493;Laerm;70900;51.798;10.954;2023-12-04T04:12:17;36.66;30.76;56.02;;
81493;Laerm;70900;51.798;10.954;2023-12-04T04:14:43;34.39;30.87;46.32;;
81493;Laerm;70900;51.798;10.954;2023-12-04T04:17:08;34.39;29.74;51.05;;
81493;Laerm;70900;51.798;10.954;2023-12-04T04:19:33;52.82;33.76;65.20;;
81493;Laerm;70900;51.798;10.954;2023-12-04T04:21:59;39.28;33.95;48.15;;
81493;Laerm;70900;51.798;10.954;2023-12-04T04:24:24;40.25;34.39;61.39;;
81493;Laerm;70900;51.798;10.954;2023-12-04T04:26:49;38.63;34.97;53.83;;
81493;Laerm;70900;51.798;10.954;2023-12-04T04:29:15;58.48;32.55;74.02;;
81493;Laerm;70900;51.798;10.954;2023-12-04T04:31:40;33.82;30.68;42.63;;
81493;Laerm;70900;51.798;10.954;2023-12-04T04:34:06;34.62;29.91;42.10;;
81493;Laerm;70900;51.798;10.954;2023-12-04T04:36:31;36.71;31.01;52.30;;
81493;Laerm;70900;51.798;10.954;2023-12-04T04:38:56;44.26;31.50;62.14;;
81493;Laerm;70900;51.798;10.954;2023-12-04T04:41:22;45.37;32.18;61.59;;
81493;Laerm;70900;51.798;10.954;2023-12-04T04:43:47;45.81;32.39;65.80;;
81493;Laerm;70900;51.798;10.954;2023-12-04T04:46:12;52.09;31.73;65.65;;
81493;Laerm;70900;51.798;10.954;2023-12-04T04:48:38;35.24;31.29;55.65;;
81493;Laerm;70900;51.798;10.954;2023-12-04T04:51:03;54.44;30.60;70.08;;
81493;Laerm;70900;51.798;10.954;2023-12-04T04:53:29;53.24;31.40;69.51;;
81493;Laerm;70900;51.798;10.954;2023-12-04T04:55:54;36.23;30.09;53.55;;
81493;Laerm;70900;51.798;10.954;2023-12-04T04:58:19;52.90;30.85;65.87;;
81493;Laerm;70900;51.798;10.954;2023-12-04T05:00:45;50.06;31.89;62.87;;
81493;Laerm;70900;51.798;10.954;2023-12-04T05:03:10;35.50;31.28;53.36;;
81493;Laerm;70900;51.798;10.954;2023-12-04T05:05:36;59.87;32.96;75.65;;
81493;Laerm;70900;51.798;10.954;2023-12-04T05:08:01;51.19;37.98;74.77;;
81493;Laerm;70900;51.798;10.954;2023-12-04T05:10:26;37.87;33.95;49.73;;
81493;Laerm;70900;51.798;10.954;2023-12-04T05:12:52;42.56;33.94;59.89;;
81493;Laerm;70900;51.798;10.954;2023-12-04T05:15:17;52.42;32.70;66.81;;
81493;Laerm;70900;51.798;10.954;2023-12-04T05:17:42;37.47;32.56;58.38;;
81493;Laerm;70900;51.798;10.954;2023-12-04T05:20:08;38.28;32.67;59.53;;
81493;Laerm;70900;51.798;10.954;2023-12-04T05:22:34;42.98;33.41;70.36;;
81493;Laerm;70900;51.798;10.954;2023-12-04T05:24:59;48.07;32.94;64.92;;
81493;Laerm;70900;51.798;10.954;2023-12-04T05:27:25;54.86;31.99;68.04;;
81493;Laerm;70900;51.798;10.954;2023-12-04T05:29:50;51.33;32.98;68.41;;
81493;Laerm;70900;51.798;10.954;2023-12-04T05:32:16;56.08;33.93;67.57;;
81493;Laerm;70900;51.798;10.954;2023-12-04T05:34:42;57.03;34.80;74.97;;
81493;Laerm;70900;51.798;10.954;2023-12-04T05:37:07;39.83;34.54;57.57;;
81493;Laerm;70900;51.798;10.954;2023-12-04T05:39:32;38.57;34.23;49.98;;
81493;Laerm;70900;51.798;10.954;2023-12-04T05:41:58;55.07;33.35;70.66;;
81493;Laerm;70900;51.798;10.954;2023-12-04T05:44:23;54.97;35.43;66.63;;
81493;Laerm;70900;51.798;10.954;2023-12-04T05:46:48;47.99;34.77;63.48;;
81493;Laerm;70900;51.798;10.954;2023-12-04T05:49:14;53.24;35.02;66.46;;
81493;Laerm;70900;51.798;10.954;2023-12-04T05:51:39;51.17;36.34;69.64;;
81493;Laerm;70900;51.798;10.954;2023-12-04T05:54:04;50.87;34.89;66.60;;
81493;Laerm;70900;51.798;10.954;2023-12-04T05:56:30;51.56;35.05;66.39;;
81493;Laerm;70900;51.798;10.954;2023-12-04T05:58:55;57.34;35.85;70.92;;
81493;Laerm;70900;51.798;10.954;2023-12-04T06:01:21;53.84;34.63;70.94;;
81493;Laerm;70900;51.798;10.954;2023-12-04T06:03:46;52.29;34.87;64.83;;
81493;Laerm;70900;51.798;10.954;2023-12-04T06:06:12;51.52;35.69;68.95;;
81493;Laerm;70900;51.798;10.954;2023-12-04T06:08:37;48.00;34.88;62.98;;
81493;Laerm;70900;51.798;10.954;2023-12-04T06:11:02;55.45;35.95;69.03;;
81493;Laerm;70900;51.798;10.954;2023-12-04T06:13:28;53.50;34.00;65.28;;
81493;Laerm;70900;51.798;10.954;2023-12-04T06:15:53;53.22;35.24;68.10;;
81493;Laerm;70900;51.798;10.954;2023-12-04T06:18:18;55.95;36.88;67.31;;
81493;Laerm;70900;51.798;10.954;2023-12-04T06:20:45;54.43;35.21;70.18;;
81493;Laerm;70900;51.798;10.954;2023-12-04T06:23:11;58.94;36.39;70.73;;
81493;Laerm;70900;51.798;10.954;2023-12-04T06:25:37;59.27;36.40;75.06;;
81493;Laerm;70900;51.798;10.954;2023-12-04T06:28:03;57.63;38.03;66.77;;
81493;Laerm;70900;51.798;10.954;2023-12-04T06:30:29;57.11;37.13;68.98;;
81493;Laerm;70900;51.798;10.954;2023-12-04T06:32:54;57.92;37.24;72.27;;
81493;Laerm;70900;51.798;10.954;2023-12-04T06:35:20;60.76;38.24;70.93;;
81493;Laerm;70900;51.798;10.954;2023-12-04T06:37:45;58.15;37.70;74.14;;
81493;Laerm;70900;51.798;10.954;2023-12-04T06:40:12;55.28;38.63;70.58;;
81493;Laerm;70900;51.798;10.954;2023-12-04T06:42:38;67.37;37.82;86.95;;
81493;Laerm;70900;51.798;10.954;2023-12-04T06:45:03;57.01;39.26;74.62;;
81493;Laerm;70900;51.798;10.954;2023-12-04T06:47:30;56.82;36.62;69.90;;
81493;Laerm;70900;51.798;10.954;2023-12-04T06:49:56;69.20;38.57;89.94;;
81493;Laerm;70900;51.798;10.954;2023-12-04T06:52:21;53.26;38.26;69.48;;
81493;Laerm;70900;51.798;10.954;2023-12-04T06:54:47;52.65;36.61;66.41;;
81493;Laerm;70900;51.798;10.954;2023-12-04T06:57:12;55.06;37.35;69.35;;
81493;Laerm;70900;51.798;10.954;2023-12-04T06:59:41;58.76;39.82;70.71;;
81493;Laerm;70900;51.798;10.954;2023-12-04T07:02:06;57.23;36.69;73.56;;
81493;Laerm;70900;51.798;10.954;2023-12-04T07:04:32;52.40;36.60;66.52;;
81493;Laerm;70900;51.798;10.954;2023-12-04T07:06:57;57.78;35.75;71.46;;
81493;Laerm;70900;51.798;10.954;2023-12-04T07:09:26;54.42;35.31;66.77;;
81493;Laerm;70900;51.798;10.954;2023-12-04T07:11:52;56.98;36.87;70.63;;
81493;Laerm;70900;51.798;10.954;2023-12-04T07:14:18;54.05;35.36;71.03;;
81493;Laerm;70900;51.798;10.954;2023-12-04T07:16:43;53.43;35.24;69.04;;
81493;Laerm;70900;51.798;10.954;2023-12-04T07:19:09;62.58;34.64;79.90;;
81493;Laerm;70900;51.798;10.954;2023-12-04T07:21:35;51.42;35.72;65.24;;
81493;Laerm;70900;51.798;10.954;2023-12-04T07:24:00;50.92;35.10;64.51;;
81493;Laerm;70900;51.798;10.954;2023-12-04T07:26:25;48.04;36.42;64.64;;
81493;Laerm;70900;51.798;10.954;2023-12-04T07:28:51;59.62;37.12;73.82;;
81493;Laerm;70900;51.798;10.954;2023-12-04T07:31:16;55.18;36.46;68.87;;
81493;Laerm;70900;51.798;10.954;2023-12-04T07:33:42;54.98;36.54;69.62;;
81493;Laerm;70900;51.798;10.954;2023-12-04T07:36:07;54.96;36.57;68.77;;
81493;Laerm;70900;51.798;10.954;2023-12-04T07:38:33;53.06;35.33;67.63;;
81493;Laerm;70900;51.798;10.954;2023-12-04T07:40:58;58.06;36.00;72.80;;
81493;Laerm;70900;51.798;10.954;2023-12-04T07:43:23;56.08;35.55;69.04;;
81493;Laerm;70900;51.798;10.954;2023-12-04T07:45:49;54.83;37.08;70.75;;
81493;Laerm;70900;51.798;10.954;2023-12-04T07:48:14;54.08;35.56;67.87;;
81493;Laerm;70900;51.798;10.954;2023-12-04T07:50:39;58.19;37.18;77.43;;
81493;Laerm;70900;51.798;10.954;2023-12-04T07:53:05;58.12;36.24;79.65;;
81493;Laerm;70900;51.798;10.954;2023-12-04T07:55:30;56.06;36.09;71.65;;
81493;Laerm;70900;51.798;10.954;2023-12-04T07:57:56;55.95;34.77;70.32;;
81493;Laerm;70900;51.798;10.954;2023-12-04T08:00:21;54.78;38.36;68.18;;
81493;Laerm;70900;51.798;10.954;2023-12-04T08:02:48;56.77;36.91;67.67;;
81493;Laerm;70900;51.798;10.954;2023-12-04T08:05:14;53.97;36.76;68.42;;
81493;Laerm;70900;51.798;10.954;2023-12-04T08:07:39;63.77;36.75;80.56;;
81493;Laerm;70900;51.798;10.954;2023-12-04T08:10:05;53.07;36.19;70.53;;
81493;Laerm;70900;51.798;10.954;2023-12-04T08:12:31;57.19;35.76;69.04;;
81493;Laerm;70900;51.798;10.954;2023-12-04T08:14:57;49.99;34.48;68.02;;
81493;Laerm;70900;51.798;10.954;2023-12-04T08:17:22;51.34;35.45;70.24;;
81493;Laerm;70900;51.798;10.954;2023-12-04T08:19:47;53.75;35.86;69.85;;
81493;Laerm;70900;51.798;10.954;2023-12-04T08:22:13;58.14;33.97;73.87;;
81493;Laerm;70900;51.798;10.954;2023-12-04T08:24:38;59.62;36.61;75.84;;
81493;Laerm;70900;51.798;10.954;2023-12-04T08:27:04;48.29;36.63;62.51;;
81493;Laerm;70900;51.798;10.954;2023-12-04T08:29:29;56.69;36.20;69.20;;
81493;Laerm;70900;51.798;10.954;2023-12-04T08:31:54;52.07;34.96;64.59;;
81493;Laerm;70900;51.798;10.954;2023-12-04T08:34:20;57.11;34.98;71.54;;
81493;Laerm;70900;51.798;10.954;2023-12-04T08:36:45;55.97;34.05;71.68;;
81493;Laerm;70900;51.798;10.954;2023-12-04T08:39:10;56.64;36.24;68.91;;
81493;Laerm;70900;51.798;10.954;2023-12-04T08:41:36;49.20;35.43;65.84;;
81493;Laerm;70900;51.798;10.954;2023-12-04T08:44:02;55.27;35.32;72.93;;
81493;Laerm;70900;51.798;10.954;2023-12-04T08:46:27;54.66;35.24;71.07;;
81493;Laerm;70900;51.798;10.954;2023-12-04T08:48:53;46.69;35.12;59.51;;
81493;Laerm;70900;51.798;10.954;2023-12-04T08:51:18;54.99;37.87;66.46;;
81493;Laerm;70900;51.798;10.954;2023-12-04T08:53:44;56.08;33.90;68.03;;
81493;Laerm;70900;51.798;10.954;2023-12-04T08:56:09;54.45;33.67;67.55;;
81493;Laerm;70900;51.798;10.954;2023-12-04T08:58:35;52.25;35.21;67.38;;
81493;Laerm;70900;51.798;10.954;2023-12-04T09:01:01;57.19;35.55;70.07;;
81493;Laerm;70900;51.798;10.954;2023-12-04T09:03:26;55.98;35.34;70.07;;
81493;Laerm;70900;51.798;10.954;2023-12-04T09:05:51;55.93;34.58;69.37;;
81493;Laerm;70900;51.798;10.954;2023-12-04T09:08:17;63.35;35.40;80.62;;
81493;Laerm;70900;51.798;10.954;2023-12-04T09:10:44;54.06;34.11;68.54;;
81493;Laerm;70900;51.798;10.954;2023-12-04T09:13:09;52.44;34.53;69.53;;
81493;Laerm;70900;51.798;10.954;2023-12-04T09:15:34;57.73;34.21;72.18;;
81493;Laerm;70900;51.798;10.954;2023-12-04T09:18:00;56.71;36.13;72.40;;
81493;Laerm;70900;51.798;10.954;2023-12-04T09:20:25;56.39;34.46;69.79;;
81493;Laerm;70900;51.798;10.954;2023-12-04T09:22:51;53.45;34.39;65.49;;
81493;Laerm;70900;51.798;10.954;2023-12-04T09:25:16;54.27;35.06;65.05;;
81493;Laerm;70900;51.798;10.954;2023-12-04T09:27:41;59.34;36.68;78.94;;
81493;Laerm;70900;51.798;10.954;2023-12-04T09:30:07;53.02;35.34;67.83;;
81493;Laerm;70900;51.798;10.954;2023-12-04T09:32:33;56.71;35.73;70.95;;
81493;Laerm;70900;51.798;10.954;2023-12-04T09:34:58;59.00;40.26;73.16;;
81493;Laerm;70900;51.798;10.954;2023-12-04T09:37:24;54.86;34.45;68.64;;
81493;Laerm;70900;51.798;10.954;2023-12-04T09:39:49;55.09;35.73;67.93;;
81493;Laerm;70900;51.798;10.954;2023-12-04T09:42:15;53.39;34.95;68.01;;
81493;Laerm;70900;51.798;10.954;2023-12-04T09:44:42;52.79;34.81;68.59;;
81493;Laerm;70900;51.798;10.954;2023-12-04T09:47:08;56.49;34.94;67.05;;
81493;Laerm;70900;51.798;10.954;2023-12-04T09:49:34;58.49;38.25;68.63;;
81493;Laerm;70900;51.798;10.954;2023-12-04T09:52:00;56.48;35.83;69.77;;
81493;Laerm;70900;51.798;10.954;2023-12-04T09:54:26;57.08;36.12;68.48;;
81493;Laerm;70900;51.798;10.954;2023-12-04T09:56:51;57.76;37.25;70.52;;
81493;Laerm;70900;51.798;10.954;2023-12-04T09:59:17;54.55;35.95;63.98;;
81493;Laerm;70900;51.798;10.954;2023-12-04T10:01:43;39.68;34.03;50.00;;
81493;Laerm;70900;51.798;10.954;2023-12-04T10:04:09;54.25;34.83;67.35;;
81493;Laerm;70900;51.798;10.954;2023-12-04T10:06:36;57.86;34.31;69.67;;
81493;Laerm;70900;51.798;10.954;2023-12-04T10:09:02;57.30;34.79;68.36;;
81493;Laerm;70900;51.798;10.954;2023-12-04T10:11:28;55.73;36.01;67.22;;
81493;Laerm;70900;51.798;10.954;2023-12-04T10:13:54;50.89;34.64;65.29;;
81493;Laerm;70900;51.798;10.954;2023-12-04T10:16:32;56.55;37.12;71.35;;
81493;Laerm;70900;51.798;10.954;2023-12-04T10:19:11;46.81;36.19;62.38;;
81493;Laerm;70900;51.798;10.954;2023-12-04T10:21:38;58.50;36.31;74.76;;
81493;Laerm;70900;51.798;10.954;2023-12-04T10:24:04;53.77;36.82;67.98;;
81493;Laerm;70900;51.798;10.954;2023-12-04T10:26:29;60.30;38.66;75.79;;
81493;Laerm;70900;51.798;10.954;2023-12-04T10:28:58;55.53;38.07;68.28;;
81493;Laerm;70900;51.798;10.954;2023-12-04T10:31:24;53.30;38.71;74.02;;
81493;Laerm;70900;51.798;10.954;2023-12-04T10:33:49;56.47;37.90;71.14;;
81493;Laerm;70900;51.798;10.954;2023-12-04T10:36:15;58.55;37.48;73.72;;
81493;Laerm;70900;51.798;10.954;2023-12-04T10:38:40;48.95;36.69;62.47;;
81493;Laerm;70900;51.798;10.954;2023-12-04T10:41:12;55.65;37.36;68.76;;
81493;Laerm;70900;51.798;10.954;2023-12-04T10:43:38;57.65;36.52;69.25;;
81493;Laerm;70900;51.798;10.954;2023-12-04T10:46:11;55.32;34.39;67.93;;
81493;Laerm;70900;51.798;10.954;2023-12-04T10:48:37;57.32;32.44;70.52;;
81493;Laerm;70900;51.798;10.954;2023-12-04T10:51:03;53.57;35.03;67.69;;
81493;Laerm;70900;51.798;10.954;2023-12-04T10:53:30;54.13;34.40;68.16;;
81493;Laerm;70900;51.798;10.954;2023-12-04T10:55:56;53.27;35.37;65.11;;
81493;Laerm;70900;51.798;10.954;2023-12-04T10:58:21;52.72;37.49;66.65;;
81493;Laerm;70900;51.798;10.954;2023-12-04T11:00:51;51.22;35.17;66.04;;
81493;Laerm;70900;51.798;10.954;2023-12-04T11:03:20;48.51;36.81;64.29;;
81493;Laerm;70900;51.798;10.954;2023-12-04T11:05:49;57.19;35.24;71.32;;
81493;Laerm;70900;51.798;10.954;2023-12-04T11:08:17;56.73;35.19;69.27;;
81493;Laerm;70900;51.798;10.954;2023-12-04T11:10:54;54.76;33.32;69.68;;
81493;Laerm;70900;51.798;10.954;2023-12-04T11:13:22;55.65;34.32;69.17;;
81493;Laerm;70900;51.798;10.954;2023-12-04T11:15:50;52.07;34.31;66.82;;
81493;Laerm;70900;51.798;10.954;2023-12-04T11:18:18;55.38;35.12;70.25;;
81493;Laerm;70900;51.798;10.954;2023-12-04T11:20:56;55.92;34.93;70.85;;
81493;Laerm;70900;51.798;10.954;2023-12-04T11:23:23;57.04;34.17;70.34;;
81493;Laerm;70900;51.798;10.954;2023-12-04T11:25:49;56.04;33.64;68.91;;
81493;Laerm;70900;51.798;10.954;2023-12-04T11:28:14;57.20;35.36;70.42;;
81493;Laerm;70900;51.798;10.954;2023-12-04T11:30:40;51.48;34.91;65.24;;
81493;Laerm;70900;51.798;10.954;2023-12-04T11:33:06;63.82;35.73;81.39;;
81493;Laerm;70900;51.798;10.954;2023-12-04T11:35:33;59.70;36.31;73.34;;
81493;Laerm;70900;51.798;10.954;2023-12-04T11:37:58;38.72;34.23;56.93;;
81493;Laerm;70900;51.798;10.954;2023-12-04T11:40:24;55.89;34.19;68.82;;
81493;Laerm;70900;51.798;10.954;2023-12-04T11:42:49;51.47;34.12;64.38;;
81493;Laerm;70900;51.798;10.954;2023-12-04T11:45:18;51.86;34.62;72.53;;
81493;Laerm;70900;51.798;10.954;2023-12-04T11:47:52;50.79;34.18;67.75;;
81493;Laerm;70900;51.798;10.954;2023-12-04T11:50:19;52.72;33.58;69.02;;
81493;Laerm;70900;51.798;10.954;2023-12-04T11:52:44;54.35;35.31;69.16;;
81493;Laerm;70900;51.798;10.954;2023-12-04T11:55:10;56.63;33.49;70.31;;
81493;Laerm;70900;51.798;10.954;2023-12-04T11:57:36;51.45;33.05;68.44;;
81493;Laerm;70900;51.798;10.954;2023-12-04T12:00:09;55.22;34.42;73.41;;
81493;Laerm;70900;51.798;10.954;2023-12-04T12:02:36;54.68;33.81;71.16;;
81493;Laerm;70900;51.798;10.954;2023-12-04T12:05:01;56.30;36.60;67.72;;
81493;Laerm;70900;51.798;10.954;2023-12-04T12:07:27;59.12;34.43;71.45;;
81493;Laerm;70900;51.798;10.954;2023-12-04T12:09:52;58.34;36.94;70.90;;
81493;Laerm;70900;51.798;10.954;2023-12-04T12:12:18;54.62;36.18;68.15;;
81493;Laerm;70900;51.798;10.954;2023-12-04T12:14:43;46.81;34.39;62.94;;
81493;Laerm;70900;51.798;10.954;2023-12-04T12:17:09;55.45;33.82;68.97;;
81493;Laerm;70900;51.798;10.954;2023-12-04T12:19:34;53.21;36.23;68.75;;
81493;Laerm;70900;51.798;10.954;2023-12-04T12:22:00;53.23;37.27;68.44;;
81493;Laerm;70900;51.798;10.954;2023-12-04T12:24:25;54.82;37.39;71.73;;
81493;Laerm;70900;51.798;10.954;2023-12-04T12:26:51;62.39;40.01;80.45;;
81493;Laerm;70900;51.798;10.954;2023-12-04T12:29:17;55.42;36.15;71.22;;
81493;Laerm;70900;51.798;10.954;2023-12-04T12:31:42;57.60;37.45;69.57;;
81493;Laerm;70900;51.798;10.954;2023-12-04T12:34:08;64.10;51.27;78.00;;
81493;Laerm;70900;51.798;10.954;2023-12-04T12:36:33;59.28;38.66;73.41;;
81493;Laerm;70900;51.798;10.954;2023-12-04T12:39:01;57.98;36.25;72.83;;
81493;Laerm;70900;51.798;10.954;2023-12-04T12:41:29;54.21;35.93;67.13;;
81493;Laerm;70900;51.798;10.954;2023-12-04T12:43:54;48.08;35.74;64.14;;
81493;Laerm;70900;51.798;10.954;2023-12-04T12:46:22;54.98;38.33;71.19;;
81493;Laerm;70900;51.798;10.954;2023-12-04T12:48:47;55.57;39.05;80.15;;
81493;Laerm;70900;51.798;10.954;2023-12-04T12:51:12;57.15;40.35;67.17;;
81493;Laerm;70900;51.798;10.954;2023-12-04T12:53:38;60.48;42.77;75.77;;
81493;Laerm;70900;51.798;10.954;2023-12-04T12:56:04;52.04;36.35;66.85;;
81493;Laerm;70900;51.798;10.954;2023-12-04T12:58:29;56.69;37.58;67.02;;
81493;Laerm;70900;51.798;10.954;2023-12-04T13:00:55;58.92;37.35;83.64;;
81493;Laerm;70900;51.798;10.954;2023-12-04T13:03:21;54.60;34.89;65.99;;
81493;Laerm;70900;51.798;10.954;2023-12-04T13:05:46;40.67;34.48;60.30;;
81493;Laerm;70900;51.798;10.954;2023-12-04T13:08:12;39.48;33.67;59.07;;
81493;Laerm;70900;51.798;10.954;2023-12-04T13:10:38;54.43;34.51;70.31;;
81493;Laerm;70900;51.798;10.954;2023-12-04T13:13:03;53.29;35.45;65.31;;
81493;Laerm;70900;51.798;10.954;2023-12-04T13:15:29;54.48;36.30;69.87;;
81493;Laerm;70900;51.798;10.954;2023-12-04T13:17:55;60.46;36.92;82.97;;
81493;Laerm;70900;51.798;10.954;2023-12-04T13:20:20;46.31;37.44;66.58;;
81493;Laerm;70900;51.798;10.954;2023-12-04T13:22:46;50.51;36.66;76.04;;
81493;Laerm;70900;51.798;10.954;2023-12-04T13:25:11;52.31;36.20;67.33;;